createdAt,value
2019-04-01T00:00:14.259Z,7.15
2019-04-01T00:01:14.235Z,7.05
2019-04-01T00:02:14.227Z,7.07
2019-04-01T00:03:14.222Z,7.09
2019-04-01T00:04:14.209Z,7.04
2019-04-01T00:05:14.204Z,7.08
2019-04-01T00:06:14.181Z,7.09
2019-04-01T00:07:14.169Z,7.16
2019-04-01T00:08:14.156Z,7.04
2019-04-01T00:09:14.147Z,6.99
2019-04-01T00:10:14.147Z,7.05
2019-04-01T00:11:14.123Z,7.02
2019-04-01T00:12:14.112Z,6.99
2019-04-01T00:13:14.099Z,6.98
2019-04-01T00:14:14.090Z,6.99
2019-04-01T00:15:14.079Z,6.91
2019-04-01T00:16:14.150Z,7.12
2019-04-01T00:17:14.146Z,7.01
2019-04-01T00:18:14.045Z,7.04
2019-04-01T00:19:14.042Z,6.95
2019-04-01T00:20:14.023Z,6.97
2019-04-01T00:21:14.024Z,6.83
2019-04-01T00:22:14.115Z,6.90
2019-04-01T00:23:14.031Z,7.01
2019-04-01T00:24:14.003Z,6.98
2019-04-01T00:25:13.968Z,6.91
2019-04-01T00:26:13.966Z,6.95
2019-04-01T00:27:13.963Z,6.89
2019-04-01T00:28:13.940Z,7.01
2019-04-01T00:29:13.923Z,6.73
2019-04-01T00:30:13.910Z,6.94
2019-04-01T00:31:13.909Z,6.87
2019-04-01T00:32:13.896Z,6.89
2019-04-01T00:33:13.876Z,6.86
2019-04-01T00:34:13.867Z,6.87
2019-04-01T00:35:13.860Z,6.87
2019-04-01T00:36:13.856Z,6.86
2019-04-01T00:37:13.833Z,6.83
2019-04-01T00:38:13.820Z,6.87
2019-04-01T00:39:13.808Z,6.77
2019-04-01T00:40:13.799Z,6.84
2019-04-01T00:41:13.859Z,6.72
2019-04-01T00:42:13.801Z,6.80
2019-04-01T00:43:13.765Z,6.76
2019-04-01T00:44:13.768Z,6.77
2019-04-01T00:45:13.742Z,6.63
2019-04-01T00:46:13.739Z,6.83
2019-04-01T00:47:13.745Z,6.68
2019-04-01T00:48:13.717Z,6.69
2019-04-01T00:49:13.697Z,6.65
2019-04-01T00:50:13.687Z,6.63
2019-04-01T00:51:13.685Z,6.68
2019-04-01T00:52:13.676Z,6.62
2019-04-01T00:53:13.653Z,6.59
2019-04-01T00:54:13.646Z,6.62
2019-04-01T00:55:13.630Z,6.65
2019-04-01T00:56:13.628Z,6.58
2019-04-01T00:57:13.610Z,6.61
2019-04-01T00:58:13.613Z,6.50
2019-04-01T00:59:13.588Z,6.56
2019-04-01T01:00:13.581Z,6.47
2019-04-01T01:01:13.574Z,6.50
2019-04-01T01:02:13.556Z,6.41
2019-04-01T01:03:13.545Z,6.58
2019-04-01T01:04:13.531Z,6.44
2019-04-01T01:05:13.521Z,6.41
2019-04-01T01:06:13.541Z,6.38
2019-04-01T01:07:13.497Z,6.43
2019-04-01T01:08:13.486Z,6.40
2019-04-01T01:09:13.475Z,6.40
2019-04-01T01:10:13.466Z,6.46
2019-04-01T01:11:13.467Z,6.36
2019-04-01T01:12:13.444Z,6.41
2019-04-01T01:13:13.430Z,6.40
2019-04-01T01:14:13.425Z,6.30
2019-04-01T01:15:13.408Z,6.41
2019-04-01T01:16:13.398Z,6.25
2019-04-01T01:17:13.395Z,6.29
2019-04-01T01:18:13.375Z,6.33
2019-04-01T01:19:13.363Z,6.11
2019-04-01T01:20:13.356Z,6.19
2019-04-01T01:21:13.345Z,6.19
2019-04-01T01:22:13.340Z,6.16
2019-04-01T01:23:13.318Z,6.11
2019-04-01T01:24:13.309Z,6.19
2019-04-01T01:25:13.297Z,6.19
2019-04-01T01:26:13.285Z,6.16
2019-04-01T01:27:13.283Z,6.14
2019-04-01T01:28:13.263Z,6.14
2019-04-01T01:29:13.253Z,6.11
2019-04-01T01:30:13.246Z,6.10
2019-04-01T01:31:13.230Z,6.13
2019-04-01T01:32:13.227Z,6.03
2019-04-01T01:33:13.208Z,6.11
2019-04-01T01:34:13.199Z,6.06
2019-04-01T01:35:13.193Z,6.07
2019-04-01T01:36:13.176Z,6.09
2019-04-01T01:37:13.170Z,6.04
2019-04-01T01:38:13.152Z,6.13
2019-04-01T01:39:13.143Z,5.96
2019-04-01T01:40:13.130Z,6.04
2019-04-01T01:41:13.118Z,5.92
2019-04-01T01:42:13.115Z,6.00
2019-04-01T01:43:13.172Z,5.98
2019-04-01T01:44:13.084Z,5.93
2019-04-01T01:45:13.074Z,5.95
2019-04-01T01:46:13.065Z,5.96
2019-04-01T01:47:13.063Z,5.96
2019-04-01T01:48:13.040Z,6.00
2019-04-01T01:49:13.126Z,5.91
2019-04-01T01:50:13.018Z,5.93
2019-04-01T01:51:13.007Z,5.98
2019-04-01T01:52:13.007Z,5.92
2019-04-01T01:53:12.985Z,5.98
2019-04-01T01:54:12.975Z,5.91
2019-04-01T01:55:12.962Z,5.93
2019-04-01T01:56:12.952Z,5.82
2019-04-01T01:57:12.951Z,5.83
2019-04-01T01:58:12.935Z,5.83
2019-04-01T01:59:12.917Z,5.82
2019-04-01T02:00:12.907Z,5.78
2019-04-01T02:01:12.901Z,5.86
2019-04-01T02:02:12.893Z,5.71
2019-04-01T02:03:12.873Z,5.77
2019-04-01T02:04:12.862Z,5.85
2019-04-01T02:05:12.853Z,5.83
2019-04-01T02:06:12.847Z,5.83
2019-04-01T02:07:12.842Z,5.70
2019-04-01T02:08:12.817Z,5.74
2019-04-01T02:09:12.809Z,5.66
2019-04-01T02:10:12.799Z,5.73
2019-04-01T02:11:12.785Z,5.71
2019-04-01T02:12:12.773Z,5.64
2019-04-01T02:13:12.772Z,5.70
2019-04-01T02:14:12.755Z,5.67
2019-04-01T02:15:12.740Z,5.66
2019-04-01T02:16:12.730Z,5.68
2019-04-01T02:17:12.718Z,5.63
2019-04-01T02:18:12.719Z,5.60
2019-04-01T02:19:12.694Z,5.59
2019-04-01T02:20:12.688Z,5.67
2019-04-01T02:21:12.680Z,5.66
2019-04-01T02:22:12.664Z,5.64
2019-04-01T02:23:12.662Z,5.63
2019-04-01T02:24:12.641Z,5.55
2019-04-01T02:25:12.629Z,5.59
2019-04-01T02:26:12.618Z,5.55
2019-04-01T02:27:12.608Z,5.49
2019-04-01T02:28:12.605Z,5.46
2019-04-01T02:29:12.591Z,5.48
2019-04-01T02:30:12.574Z,5.52
2019-04-01T02:31:12.562Z,5.43
2019-04-01T02:32:12.554Z,5.50
2019-04-01T02:33:12.551Z,5.40
2019-04-01T02:34:12.531Z,5.50
2019-04-01T02:35:12.518Z,5.43
2019-04-01T02:36:12.511Z,5.35
2019-04-01T02:37:12.494Z,5.43
2019-04-01T02:38:12.496Z,5.38
2019-04-01T02:39:12.474Z,5.41
2019-04-01T02:40:12.470Z,5.40
2019-04-01T02:41:12.467Z,5.34
2019-04-01T02:42:12.445Z,5.38
2019-04-01T02:43:12.438Z,5.31
2019-04-01T02:44:12.420Z,5.31
2019-04-01T02:45:12.405Z,5.38
2019-04-01T02:46:12.401Z,5.27
2019-04-01T02:47:12.384Z,5.19
2019-04-01T02:48:12.388Z,5.23
2019-04-01T02:49:12.364Z,5.34
2019-04-01T02:50:12.351Z,5.37
2019-04-01T02:51:12.347Z,5.25
2019-04-01T02:52:12.332Z,5.37
2019-04-01T02:53:12.319Z,5.34
2019-04-01T02:54:12.317Z,5.13
2019-04-01T02:55:12.298Z,5.25
2019-04-01T02:56:12.308Z,5.25
2019-04-01T02:57:12.307Z,5.19
2019-04-01T02:58:12.269Z,5.25
2019-04-01T02:59:12.263Z,5.20
2019-04-01T03:00:12.240Z,5.17
2019-04-01T03:01:12.236Z,5.19
2019-04-01T03:02:12.220Z,5.12
2019-04-01T03:03:12.259Z,5.16
2019-04-01T03:04:12.208Z,5.14
2019-04-01T03:05:12.186Z,5.19
2019-04-01T03:06:12.173Z,5.14
2019-04-01T03:07:12.236Z,5.02
2019-04-01T03:08:12.165Z,5.12
2019-04-01T03:09:12.154Z,5.14
2019-04-01T03:10:12.129Z,5.13
2019-04-01T03:11:12.131Z,5.05
2019-04-01T03:12:12.110Z,5.07
2019-04-01T03:13:12.140Z,5.09
2019-04-01T03:14:12.102Z,5.05
2019-04-01T03:15:12.077Z,5.04
2019-04-01T03:16:12.061Z,5.01
2019-04-01T03:17:12.070Z,4.94
2019-04-01T03:18:12.042Z,4.89
2019-04-01T03:19:12.039Z,4.92
2019-04-01T03:20:12.020Z,5.02
2019-04-01T03:21:12.009Z,4.94
2019-04-01T03:22:11.999Z,4.94
2019-04-01T03:23:11.987Z,4.92
2019-04-01T03:24:11.991Z,4.94
2019-04-01T03:25:11.961Z,4.94
2019-04-01T03:26:11.965Z,4.95
2019-04-01T03:27:12.118Z,4.80
2019-04-01T03:28:11.933Z,4.88
2019-04-01T03:29:11.930Z,4.95
2019-04-01T03:30:11.945Z,4.80
2019-04-01T11:11:22.466Z,24.56
2019-04-01T11:12:22.448Z,24.75
2019-04-01T11:13:22.443Z,24.68
2019-04-01T11:14:22.983Z,24.67
2019-04-01T11:15:22.412Z,24.44
2019-04-01T11:16:22.404Z,23.97
2019-04-01T11:17:22.391Z,23.94
2019-04-01T11:18:22.390Z,23.98
2019-04-01T11:19:22.370Z,24.10
2019-04-01T11:20:22.359Z,24.13
2019-04-01T11:21:22.348Z,24.13
2019-04-01T11:22:22.340Z,24.14
2019-04-01T11:23:22.342Z,24.41
2019-04-01T11:24:22.317Z,24.44
2019-04-01T11:25:22.308Z,24.32
2019-04-01T11:26:22.299Z,24.20
2019-04-01T11:27:22.284Z,24.16
2019-04-01T11:28:22.307Z,24.39
2019-04-01T11:29:25.474Z,24.57
2019-04-01T11:30:22.277Z,24.85
2019-04-01T11:31:22.254Z,24.94
2019-04-01T11:32:22.255Z,25.02
2019-04-01T11:33:22.243Z,24.92
2019-04-01T11:34:22.215Z,24.73
2019-04-01T11:35:22.233Z,24.67
2019-04-01T11:36:22.226Z,24.63
2019-04-01T11:37:22.228Z,24.38
2019-04-01T11:38:22.207Z,24.07
2019-04-01T11:39:22.180Z,24.12
2019-04-01T11:40:22.180Z,24.37
2019-04-01T11:41:22.144Z,24.87
2019-04-01T11:42:22.952Z,25.30
2019-04-01T11:43:23.446Z,25.47
2019-04-01T11:44:22.449Z,25.77
2019-04-01T11:45:22.676Z,25.94
2019-04-01T11:46:23.279Z,26.31
2019-04-01T11:47:22.515Z,26.68
2019-04-01T11:48:22.097Z,26.73
2019-04-01T11:49:22.076Z,26.64
2019-04-01T11:50:22.074Z,26.54
2019-04-01T11:51:32.724Z,26.57
2019-04-01T11:52:23.038Z,26.62
2019-04-01T11:53:22.027Z,26.76
2019-04-01T11:54:22.014Z,26.77
2019-04-01T11:55:21.993Z,26.77
2019-04-01T11:56:21.983Z,26.80
2019-04-01T11:57:21.976Z,26.58
2019-04-01T11:58:21.960Z,25.98
2019-04-01T11:59:21.958Z,25.97
2019-04-01T12:00:21.949Z,26.11
2019-04-01T12:01:21.934Z,26.06
2019-04-01T12:02:21.919Z,26.18
2019-04-01T12:03:21.908Z,26.08
2019-04-01T12:04:22.194Z,26.02
2019-04-01T12:05:22.130Z,25.91
2019-04-01T12:06:21.877Z,26.01
2019-04-01T12:07:21.868Z,25.86
2019-04-01T12:08:21.856Z,25.71
2019-04-01T12:09:21.848Z,25.53
2019-04-01T12:10:21.850Z,25.49
2019-04-01T12:11:21.830Z,25.64
2019-04-01T12:12:23.949Z,25.71
2019-04-01T12:13:21.804Z,25.77
2019-04-01T12:14:21.797Z,25.90
2019-04-01T12:15:21.792Z,26.05
2019-04-01T12:16:21.772Z,26.29
2019-04-01T12:17:21.766Z,26.57
2019-04-01T12:18:21.755Z,26.58
2019-04-01T12:19:21.743Z,26.79
2019-04-01T12:20:21.773Z,26.96
2019-04-01T12:21:21.720Z,27.14
2019-04-01T12:22:21.712Z,27.21
2019-04-01T12:23:21.706Z,27.21
2019-04-01T12:24:21.690Z,27.29
2019-04-01T12:25:21.691Z,27.16
2019-04-01T12:26:21.669Z,27.01
2019-04-01T12:27:21.661Z,26.89
2019-04-01T12:28:21.652Z,26.64
2019-04-01T12:29:21.646Z,26.32
2019-04-01T12:30:21.638Z,25.93
2019-04-01T12:31:21.995Z,25.72
2019-04-01T12:32:21.606Z,25.54
2019-04-01T12:33:21.598Z,25.50
2019-04-01T12:34:21.589Z,25.34
2019-04-01T12:35:21.601Z,25.52
2019-04-01T12:36:21.567Z,25.38
2019-04-01T12:37:21.557Z,25.32
2019-04-01T12:38:21.549Z,25.43
2019-04-01T12:39:21.536Z,25.15
2019-04-01T12:40:21.537Z,25.19
2019-04-01T12:41:21.518Z,25.54
2019-04-01T12:42:21.504Z,25.91
2019-04-01T12:43:23.503Z,26.25
2019-04-01T12:44:21.486Z,26.50
2019-04-01T12:45:21.481Z,26.83
2019-04-01T12:46:21.463Z,27.06
2019-04-01T12:47:21.472Z,27.23
2019-04-01T12:48:21.442Z,27.32
2019-04-01T12:49:21.431Z,27.41
2019-04-01T12:50:21.435Z,27.58
2019-04-01T12:51:21.864Z,27.70
2019-04-01T12:52:21.402Z,27.66
2019-04-01T12:53:21.391Z,27.70
2019-04-01T12:54:21.385Z,27.70
2019-04-01T12:55:21.370Z,27.51
2019-04-01T12:56:21.369Z,27.41
2019-04-01T12:57:21.398Z,27.48
2019-04-01T12:58:25.062Z,27.46
2019-04-01T12:59:21.338Z,27.43
2019-04-01T13:00:22.181Z,27.38
2019-04-01T13:01:21.342Z,27.41
2019-04-01T13:02:21.297Z,27.48
2019-04-01T13:03:21.288Z,27.67
2019-04-01T13:04:21.277Z,27.77
2019-04-01T13:05:22.695Z,27.99
2019-04-01T13:06:22.129Z,27.99
2019-04-01T13:07:21.248Z,27.99
2019-04-01T13:08:21.238Z,28.03
2019-04-01T13:09:22.167Z,27.59
2019-04-01T13:10:21.216Z,27.38
2019-04-01T13:11:21.218Z,27.36
2019-04-01T13:12:21.195Z,27.50
2019-04-01T13:13:22.797Z,27.46
2019-04-01T13:14:21.173Z,27.21
2019-04-01T13:15:21.162Z,27.01
2019-04-01T13:16:21.162Z,26.76
2019-04-01T13:17:21.397Z,26.80
2019-04-01T13:18:21.131Z,27.13
2019-04-01T13:19:21.122Z,27.26
2019-04-01T13:20:21.117Z,27.09
2019-04-01T13:21:21.112Z,26.83
2019-04-01T13:22:21.092Z,26.91
2019-04-01T13:23:21.085Z,27.10
2019-04-01T13:24:21.072Z,27.26
2019-04-01T13:25:21.061Z,26.98
2019-04-01T13:26:21.058Z,26.52
2019-04-01T13:27:21.037Z,26.09
2019-04-01T13:28:21.033Z,25.83
2019-04-01T13:29:21.026Z,25.97
2019-04-01T13:30:23.991Z,26.04
2019-04-01T13:31:21.016Z,26.09
2019-04-01T13:32:20.985Z,26.25
2019-04-01T13:33:20.975Z,25.69
2019-04-01T13:34:20.993Z,25.42
2019-04-01T13:35:20.956Z,25.27
2019-04-01T13:36:21.181Z,25.64
2019-04-01T13:37:20.945Z,26.04
2019-04-01T13:38:20.924Z,26.09
2019-04-01T13:39:20.915Z,26.08
2019-04-01T13:40:20.903Z,26.21
2019-04-01T13:41:20.894Z,26.24
2019-04-01T13:42:24.680Z,26.28
2019-04-01T13:43:20.872Z,26.32
2019-04-01T13:44:35.676Z,26.65
2019-04-01T13:45:21.847Z,26.81
2019-04-01T13:46:20.841Z,27.11
2019-04-01T13:47:20.852Z,27.11
2019-04-01T13:48:20.817Z,27.24
2019-04-01T13:49:20.805Z,27.51
2019-04-01T13:50:20.796Z,27.57
2019-04-01T13:51:20.786Z,27.36
2019-04-01T13:52:20.788Z,27.21
2019-04-01T13:53:20.765Z,27.32
2019-04-01T13:54:20.755Z,27.58
2019-04-01T13:55:20.744Z,27.64
2019-04-01T13:56:20.777Z,27.71
2019-04-01T13:57:20.732Z,27.76
2019-04-01T13:58:20.738Z,27.69
2019-04-01T13:59:20.698Z,27.71
2019-04-01T14:00:20.748Z,27.73
2019-04-01T14:01:20.678Z,27.59
2019-04-01T14:02:20.679Z,27.57
2019-04-01T14:03:20.658Z,27.26
2019-04-01T14:04:20.650Z,27.09
2019-04-01T14:05:20.635Z,26.86
2019-04-01T14:06:20.626Z,26.65
2019-04-01T14:07:21.465Z,26.67
2019-04-01T14:08:22.311Z,26.54
2019-04-01T14:09:20.902Z,26.04
2019-04-01T14:10:20.587Z,25.68
2019-04-01T14:11:20.570Z,25.68
2019-04-01T14:12:20.575Z,25.64
2019-04-01T14:13:20.549Z,25.80
2019-04-01T14:14:20.539Z,25.84
2019-04-01T14:15:20.528Z,25.97
2019-04-01T14:16:20.519Z,26.08
2019-04-01T14:17:20.503Z,25.98
2019-04-01T14:18:20.502Z,26.09
2019-04-01T14:19:20.482Z,26.11
2019-04-01T14:20:20.471Z,25.98
2019-04-01T14:21:20.935Z,25.56
2019-04-01T14:22:20.564Z,25.28
2019-04-01T14:23:23.304Z,25.34
2019-04-01T14:24:20.430Z,25.46
2019-04-01T14:25:20.417Z,25.47
2019-04-01T14:26:20.411Z,25.42
2019-04-01T14:27:20.396Z,25.47
2019-04-01T14:28:20.393Z,25.37
2019-04-01T14:29:20.375Z,25.38
2019-04-01T14:30:20.364Z,25.43
2019-04-01T14:31:20.352Z,25.10
2019-04-01T14:32:20.347Z,24.10
2019-04-01T14:33:20.339Z,23.75
2019-04-01T14:34:23.232Z,23.32
2019-04-01T14:35:23.529Z,23.08
2019-04-01T14:36:20.299Z,23.05
2019-04-01T14:37:26.028Z,22.94
2019-04-01T14:38:21.285Z,22.56
2019-04-01T14:39:20.268Z,22.32
2019-04-01T14:40:20.253Z,21.83
2019-04-01T14:41:20.247Z,21.59
2019-04-01T14:42:20.232Z,21.24
2019-04-01T14:43:20.229Z,21.32
2019-04-01T14:44:20.209Z,21.29
2019-04-01T14:45:20.199Z,21.11
2019-04-01T14:46:20.189Z,21.23
2019-04-01T14:47:20.178Z,21.45
2019-04-01T14:48:20.176Z,21.54
2019-04-01T14:49:20.155Z,21.63
2019-04-01T14:50:20.148Z,21.91
2019-04-01T14:51:20.151Z,22.04
2019-04-01T14:52:31.663Z,22.04
2019-04-01T14:53:21.139Z,22.41
2019-04-01T14:54:20.798Z,22.60
2019-04-01T14:55:20.087Z,22.96
2019-04-01T14:56:20.078Z,23.22
2019-04-01T14:57:20.074Z,23.55
2019-04-01T14:58:20.053Z,23.75
2019-04-01T14:59:20.054Z,23.67
2019-04-01T15:00:20.031Z,23.70
2019-04-01T15:01:20.020Z,23.60
2019-04-01T15:02:20.012Z,23.57
2019-04-01T15:03:20.000Z,23.34
2019-04-01T15:04:19.996Z,23.22
2019-04-01T15:05:20.909Z,23.24
2019-04-01T15:06:19.964Z,23.29
2019-04-01T15:07:19.953Z,23.07
2019-04-01T15:08:19.942Z,22.75
2019-04-01T15:09:23.342Z,22.62
2019-04-01T15:10:19.921Z,22.54
2019-04-01T15:11:19.908Z,22.23
2019-04-01T15:12:19.899Z,22.01
2019-04-01T15:13:19.891Z,21.60
2019-04-01T15:14:19.898Z,21.42
2019-04-01T15:15:19.863Z,21.39
2019-04-01T15:16:19.868Z,21.36
2019-04-01T15:17:19.867Z,21.51
2019-04-01T15:18:19.831Z,21.46
2019-04-01T15:19:19.827Z,21.64
2019-04-01T15:20:19.815Z,21.76
2019-04-01T15:21:19.798Z,21.75
2019-04-01T15:22:19.786Z,21.67
2019-04-01T15:23:19.773Z,21.54
2019-04-01T15:24:19.773Z,21.46
2019-04-01T15:25:19.751Z,21.56
2019-04-01T15:26:19.741Z,21.60
2019-04-01T15:27:22.443Z,21.76
2019-04-01T15:28:19.720Z,21.83
2019-04-01T15:29:19.717Z,21.83
2019-04-01T15:30:19.697Z,21.92
2019-04-01T15:31:19.690Z,21.98
2019-04-01T15:32:19.673Z,21.79
2019-04-01T15:33:21.160Z,21.64
2019-04-01T15:34:19.873Z,21.60
2019-04-01T15:35:19.644Z,21.39
2019-04-01T15:36:19.632Z,21.20
2019-04-01T15:37:19.618Z,20.99
2019-04-01T15:38:19.607Z,20.84
2019-04-01T15:39:19.978Z,20.71
2019-04-01T15:40:19.625Z,20.69
2019-04-01T15:41:19.575Z,20.53
2019-04-01T15:42:19.566Z,20.49
2019-04-01T15:43:19.549Z,20.34
2019-04-01T15:44:19.539Z,20.16
2019-04-01T15:45:19.537Z,20.15
2019-04-01T15:46:19.518Z,20.02
2019-04-01T15:47:19.507Z,20.12
2019-04-01T15:48:19.495Z,20.00
2019-04-01T15:49:19.496Z,19.95
2019-04-01T15:50:28.387Z,19.90
2019-04-01T15:51:20.486Z,19.75
2019-04-01T15:52:19.452Z,19.65
2019-04-01T15:53:19.439Z,19.61
2019-04-01T15:54:19.428Z,19.50
2019-04-01T15:55:19.426Z,19.47
2019-04-01T15:56:19.405Z,19.36
2019-04-01T15:57:19.396Z,19.21
2019-04-01T15:58:19.390Z,19.25
2019-04-01T15:59:19.374Z,19.14
2019-04-01T16:00:19.764Z,19.18
2019-04-01T16:01:19.352Z,19.25
2019-04-01T16:02:19.337Z,19.11
2019-04-01T16:03:19.329Z,19.13
2019-04-01T16:04:19.317Z,19.17
2019-04-01T16:05:19.319Z,19.08
2019-04-01T16:06:19.293Z,19.01
2019-04-01T16:07:22.417Z,18.82
2019-04-01T16:08:19.270Z,18.80
2019-04-01T16:09:19.260Z,18.59
2019-04-01T16:10:20.969Z,18.70
2019-04-01T16:11:19.247Z,18.62
2019-04-01T16:12:19.234Z,18.62
2019-04-01T16:13:19.214Z,18.61
2019-04-01T16:14:19.573Z,18.57
2019-04-01T16:15:19.190Z,18.55
2019-04-01T16:16:19.187Z,18.57
2019-04-01T16:17:19.172Z,18.52
2019-04-01T16:18:19.157Z,18.49
2019-04-01T16:19:19.146Z,18.46
2019-04-01T16:20:19.137Z,18.42
2019-04-01T16:21:19.133Z,18.40
2019-04-01T16:22:19.110Z,18.36
2019-04-01T16:23:19.408Z,18.36
2019-04-01T16:24:19.087Z,18.21
2019-04-01T16:25:19.075Z,18.21
2019-04-01T16:26:19.075Z,18.24
2019-04-01T16:27:19.079Z,18.22
2019-04-01T16:28:19.041Z,18.19
2019-04-01T16:29:19.031Z,18.13
2019-04-01T16:30:19.020Z,18.13
2019-04-01T16:31:19.016Z,18.06
2019-04-01T16:32:18.998Z,18.13
2019-04-01T16:33:18.986Z,18.09
2019-04-01T16:34:18.975Z,18.07
2019-04-01T16:35:19.004Z,17.88
2019-04-01T16:36:18.966Z,18.00
2019-04-01T16:37:18.942Z,18.04
2019-04-01T16:38:18.931Z,17.92
2019-04-01T16:39:18.920Z,17.91
2019-04-01T16:40:18.910Z,17.91
2019-04-01T16:41:18.909Z,17.85
2019-04-01T16:42:19.488Z,17.76
2019-04-01T16:43:18.875Z,17.78
2019-04-01T16:44:18.866Z,17.79
2019-04-01T16:45:18.855Z,17.70
2019-04-01T16:46:18.860Z,17.78
2019-04-01T16:47:18.830Z,17.74
2019-04-01T16:48:18.824Z,17.70
2019-04-01T16:49:18.810Z,17.73
2019-04-01T16:50:18.799Z,17.66
2019-04-01T16:51:18.789Z,17.69
2019-04-01T16:52:18.788Z,17.64
2019-04-01T16:53:18.764Z,17.70
2019-04-01T16:54:18.767Z,17.78
2019-04-01T16:55:18.838Z,17.70
2019-04-01T16:56:18.733Z,17.70
2019-04-01T16:57:18.730Z,17.69
2019-04-01T16:58:18.709Z,17.57
2019-04-01T16:59:18.702Z,17.66
2019-04-01T17:00:18.693Z,17.66
2019-04-01T17:01:18.687Z,17.55
2019-04-01T17:02:18.741Z,17.57
2019-04-01T17:03:19.693Z,17.50
2019-04-01T17:04:18.642Z,17.46
2019-04-01T17:05:18.632Z,17.53
2019-04-01T17:06:18.623Z,17.51
2019-04-01T17:07:19.786Z,17.43
2019-04-01T17:08:18.599Z,17.36
2019-04-01T17:09:18.602Z,17.38
2019-04-01T17:10:18.575Z,17.41
2019-04-01T17:11:18.567Z,17.41
2019-04-01T17:12:18.565Z,17.35
2019-04-01T17:13:18.543Z,17.33
2019-04-01T17:14:18.537Z,17.28
2019-04-01T17:15:18.522Z,17.36
2019-04-01T17:16:18.509Z,17.20
2019-04-01T17:17:18.504Z,17.22
2019-04-01T17:18:18.485Z,17.13
2019-04-01T17:19:18.474Z,17.25
2019-04-01T17:20:18.462Z,17.10
2019-04-01T17:21:18.451Z,17.13
2019-04-01T17:22:18.448Z,17.06
2019-04-01T17:23:18.429Z,17.07
2019-04-01T17:24:18.416Z,17.11
2019-04-01T17:25:18.405Z,17.04
2019-04-01T17:26:18.395Z,16.96
2019-04-01T17:27:18.390Z,17.00
2019-04-01T17:28:18.371Z,16.92
2019-04-01T17:29:18.359Z,16.95
2019-04-01T17:30:18.348Z,16.88
2019-04-01T17:31:18.337Z,16.83
2019-04-01T17:32:18.339Z,16.85
2019-04-01T17:33:18.316Z,16.92
2019-04-01T17:34:18.303Z,16.81
2019-04-01T17:35:18.292Z,16.75
2019-04-01T17:36:18.286Z,16.77
2019-04-01T17:37:18.280Z,16.67
2019-04-01T17:38:18.257Z,16.67
2019-04-01T17:39:18.248Z,16.77
2019-04-01T17:40:18.259Z,16.71
2019-04-01T17:41:18.225Z,16.73
2019-04-01T17:42:18.228Z,16.70
2019-04-01T17:43:18.217Z,16.60
2019-04-01T17:44:18.195Z,16.56
2019-04-01T17:45:18.180Z,16.56
2019-04-01T17:46:18.170Z,16.55
2019-04-01T17:47:18.168Z,16.49
2019-04-01T17:48:18.150Z,16.58
2019-04-01T17:49:18.132Z,16.44
2019-04-01T17:50:18.122Z,16.45
2019-04-01T17:51:18.112Z,16.34
2019-04-01T17:52:18.100Z,16.40
2019-04-01T17:53:18.098Z,16.30
2019-04-01T17:54:18.982Z,16.25
2019-04-01T17:55:18.066Z,16.14
2019-04-01T17:56:18.414Z,16.22
2019-04-01T17:57:18.041Z,16.16
2019-04-01T17:58:18.040Z,16.04
2019-04-01T17:59:18.020Z,16.00
2019-04-01T18:00:18.010Z,15.97
2019-04-01T18:01:18.002Z,16.01
2019-04-01T18:02:17.997Z,16.00
2019-04-01T18:03:17.986Z,16.04
2019-04-01T18:04:17.963Z,15.99
2019-04-01T18:05:17.956Z,15.88
2019-04-01T18:06:17.940Z,15.93
2019-04-01T18:07:17.928Z,15.93
2019-04-01T18:08:17.925Z,15.81
2019-04-01T18:09:17.905Z,15.82
2019-04-01T18:10:17.895Z,15.74
2019-04-01T18:11:17.887Z,15.75
2019-04-01T18:12:17.871Z,15.72
2019-04-01T18:13:17.871Z,15.68
2019-04-01T18:14:19.004Z,15.63
2019-04-01T18:15:20.617Z,15.63
2019-04-01T18:16:17.826Z,15.57
2019-04-01T18:17:18.671Z,15.52
2019-04-01T18:18:26.693Z,15.54
2019-04-01T18:19:18.792Z,15.63
2019-04-01T18:20:20.095Z,15.48
2019-04-01T18:21:17.771Z,15.46
2019-04-01T18:22:17.761Z,15.48
2019-04-01T18:23:17.758Z,15.39
2019-04-01T18:24:17.735Z,15.39
2019-04-01T18:25:17.723Z,15.30
2019-04-01T18:26:18.019Z,15.48
2019-04-01T18:27:17.713Z,15.27
2019-04-01T18:28:17.703Z,15.24
2019-04-01T18:29:17.682Z,15.28
2019-04-01T18:30:17.668Z,15.21
2019-04-01T18:31:17.655Z,15.13
2019-04-01T18:32:17.645Z,15.13
2019-04-01T18:33:19.864Z,15.13
2019-04-01T18:34:17.623Z,15.05
2019-04-01T18:35:17.615Z,15.06
2019-04-01T18:36:17.600Z,15.05
2019-04-01T18:37:17.588Z,15.01
2019-04-01T18:38:17.619Z,15.03
2019-04-01T18:39:17.566Z,14.95
2019-04-01T18:40:31.439Z,14.91
2019-04-01T18:41:18.544Z,15.02
2019-04-01T18:42:17.534Z,14.87
2019-04-01T18:43:17.536Z,14.78
2019-04-01T18:44:18.769Z,14.83
2019-04-01T18:45:17.499Z,14.74
2019-04-01T18:46:20.785Z,14.74
2019-04-01T18:47:17.478Z,14.69
2019-04-01T18:48:19.256Z,14.81
2019-04-01T18:49:17.597Z,14.65
2019-04-01T18:50:17.441Z,14.62
2019-04-01T18:51:20.181Z,14.61
2019-04-01T18:52:17.420Z,14.52
2019-04-01T18:53:17.415Z,14.53
2019-04-01T18:54:17.409Z,14.50
2019-04-01T18:55:17.384Z,14.44
2019-04-01T18:56:17.375Z,14.43
2019-04-01T18:57:17.370Z,14.37
2019-04-01T18:58:17.353Z,14.32
2019-04-01T18:59:17.348Z,14.38
2019-04-01T19:00:18.309Z,14.38
2019-04-01T19:01:17.318Z,14.42
2019-04-01T19:02:17.306Z,14.24
2019-04-01T19:03:17.295Z,14.37
2019-04-01T19:04:17.293Z,14.27
2019-04-01T19:05:17.272Z,14.25
2019-04-01T19:06:17.262Z,14.28
2019-04-01T19:07:17.252Z,14.25
2019-04-01T19:08:17.239Z,14.25
2019-04-01T19:09:17.311Z,14.20
2019-04-01T19:10:17.254Z,14.21
2019-04-01T19:11:17.204Z,14.19
2019-04-01T19:12:17.194Z,14.04
2019-04-01T19:13:17.185Z,14.10
2019-04-01T19:14:17.254Z,14.06
2019-04-01T19:15:17.196Z,13.98
2019-04-01T19:16:17.312Z,13.94
2019-04-01T19:17:17.137Z,13.92
2019-04-01T19:18:17.126Z,13.96
2019-04-01T19:19:17.122Z,13.84
2019-04-01T19:20:17.106Z,13.92
2019-04-01T19:21:17.099Z,13.87
2019-04-01T19:22:17.090Z,13.81
2019-04-01T19:23:17.070Z,13.84
2019-04-01T19:24:17.081Z,13.84
2019-04-01T19:25:17.047Z,13.76
2019-04-01T19:26:17.037Z,13.76
2019-04-01T19:27:17.026Z,13.71
2019-04-01T19:28:18.234Z,13.79
2019-04-01T19:29:17.003Z,13.69
2019-04-01T19:30:16.999Z,13.67
2019-04-01T19:31:16.982Z,13.61
2019-04-01T19:32:16.971Z,13.56
2019-04-01T19:33:16.955Z,13.67
2019-04-01T19:34:16.946Z,13.67
2019-04-01T19:35:16.943Z,13.62
2019-04-01T19:36:16.923Z,13.62
2019-04-01T19:37:18.260Z,13.59
2019-04-01T19:38:16.901Z,13.62
2019-04-01T19:39:16.888Z,13.59
2019-04-01T19:40:20.262Z,13.52
2019-04-01T19:41:16.868Z,13.52
2019-04-01T19:42:17.904Z,13.46
2019-04-01T19:43:16.846Z,13.51
2019-04-01T19:44:16.833Z,13.47
2019-04-01T19:45:16.830Z,13.51
2019-04-01T19:46:16.816Z,13.44
2019-04-01T19:47:16.803Z,13.51
2019-04-01T19:48:16.786Z,13.46
2019-04-01T19:49:16.779Z,13.47
2019-04-01T19:50:18.321Z,13.41
2019-04-01T19:51:16.753Z,13.46
2019-04-01T19:52:16.741Z,13.49
2019-04-01T19:53:16.730Z,13.38
2019-04-01T19:54:16.721Z,13.37
2019-04-01T19:55:16.716Z,13.27
2019-04-01T19:56:16.695Z,13.29
2019-04-01T19:57:16.684Z,13.30
2019-04-01T19:58:16.673Z,13.22
2019-04-01T19:59:16.675Z,13.25
2019-04-01T20:00:27.208Z,13.21
2019-04-01T20:01:17.638Z,13.21
2019-04-01T20:02:16.629Z,13.15
2019-04-01T20:03:16.619Z,13.21
2019-04-01T20:04:16.605Z,13.07
2019-04-01T20:05:16.603Z,13.03
2019-04-01T20:06:17.454Z,13.15
2019-04-01T20:07:16.578Z,13.06
2019-04-01T20:08:16.799Z,13.14
2019-04-01T20:09:17.989Z,13.02
2019-04-01T20:10:17.295Z,13.06
2019-04-01T20:11:16.530Z,12.96
2019-04-01T20:12:16.518Z,12.96
2019-04-01T20:13:16.502Z,12.97
2019-04-01T20:14:16.491Z,12.87
2019-04-01T20:15:16.492Z,12.81
2019-04-01T20:16:16.477Z,12.81
2019-04-01T20:17:16.463Z,12.93
2019-04-01T20:18:16.448Z,12.92
2019-04-01T20:19:16.435Z,12.84
2019-04-01T20:20:16.436Z,12.84
2019-04-01T20:21:16.413Z,12.82
2019-04-01T20:22:16.410Z,12.85
2019-04-01T20:23:16.392Z,12.79
2019-04-01T20:24:16.378Z,12.79
2019-04-01T20:25:17.160Z,12.82
2019-04-01T20:26:16.399Z,12.67
2019-04-01T20:27:16.345Z,12.81
2019-04-01T20:28:16.336Z,12.81
2019-04-01T20:29:16.322Z,12.66
2019-04-01T20:30:16.310Z,12.84
2019-04-01T20:31:16.307Z,12.75
2019-04-01T20:32:17.782Z,12.63
2019-04-01T20:33:17.892Z,12.74
2019-04-01T20:34:20.009Z,12.59
2019-04-01T20:35:23.299Z,12.60
2019-04-01T20:36:27.939Z,12.51
2019-04-01T20:37:17.234Z,12.52
2019-04-01T20:38:16.222Z,12.49
2019-04-01T20:39:16.209Z,12.52